This site, now in its 15th season, is a labour of love and fun from one of Ottawa's most avid time trialists and number crunchers. It adheres to and is permitted by the laws of Canada, promotes the objectives of every bicycle club whose results are shown, and is donated free of charge by myself for your enjoyment and usage. If you would like results from series you ride in to be shown here, give me (celia@drmath.ca) a shout!


Index Page
ATT OTT WTT AATT CFCTT VVVTT
Help resultformat:
Case-sensitive

OBC Open TT Series - 2010-Aug-19 - 15km (Rockliffe Pkwy) (EvtFactor = 0.9666)

Weather (18:00): Cloudy. Temp.: 20C, Humidity: 86%, Dew Point: 17C, Wind: SW 15km/h, Pressure: 100.9kPa, Vis: 24km, Humidex: *.
Weather (19:00): Mostly Cloudy. Temp.: 20C, Humidity: 83%, Dew Point: 17C, Wind: WNW 17 gust 28km/h, Pressure: 101.0kPa, Vis: 24km, Humidex: 25.
Weather (20:00): Cloudy. Temp.: 19C, Humidity: 79%, Dew Point: 15C, Wind: NW 13km/h, Pressure: 101.0kPa, Vis: 24km, Humidex: *.

Send photos with description (when/where/what) of yourself on or off of bike to celia@drmath.ca

Heavy rain at around 15:30 let up by 17:00, allowing a dry commute to the time trial, though it was a little dirty going through the construction zones! It wasn't an ideal night - Some found the wind to be gusting from both sides and it was a little cooler than we were used to this summer, but still there were some great performances. Most noteworthy was the new Veteran A Female course record of 20:58 set by first place women's finisher Veronique Fortin, who posted almost an 8% improvement in her cube speed ratio with her 20:56. Also kudos to Derek Gee for his 23:08 in his first year as a Minime Male. The only faster times in his category are by Jeremie Lacasse and Andrew Lattimore, and all of those times were set in these rider's 14th rather than 13th year, so we may see Derek break the minime record next year. In all, 23 improved upon and 1 tied his or her Previous Database best for 15km, while 30 bettered and 3 tied their previous season-series best for 15km. Congratulations to Joanne Schuck, Robert Orange, Alexandre Michel, Courtnay Darville (neé Romkey) and Marcel Berthelot who each improved their 15km previous database best by more than 11%!

These results were posted on the OBC site circa 19:00 on 2010-Aug-20 and are available here for your added pleasure and analysis.

(Lest complaints about me just lazily sucking in the results surface, I wish to make it perfectly clear that I would gladly do the data entry, getting the results up within a few of hours of the event, as history shows that I did for the WTT series for the decade beginning in 1998, and for the OTT series from 1999-2002 and again in 2006. The OBC Board however, not only won't let me volunteer here, but strangely enough they actually expelled me from the OBC for donating this time trial web site to you ! It is strange to me that a bike club would expel one of the most avid cyclists in town because she volunteers a cool cycling service...)

 
 

BESTS?
 
1 MacDonald, Warren  OBC 19:15 46.753 1/66 VAM 1/12 0.9315
2 Parniak, Robert  --- 19:30 46.154 2/66 VAM 2/12 1.0052
3 Rendall, Glen  RWR 19:34 45.997 3/66 VBM 1/12 1.0026
van den Ham, Douglas  OBC 19:34 45.997 3/66 VAM 3/12 1.0000
5 Plaunt, Grahame --- 19:41 45.724 5/66 VAM 4/12  
6 Stachon, David --- 19:55 45.188 6/66 VAM 5/12 1.0588
7 Sudac, Rick  OBC/RWR 20:07 44.739 7/66 VDM 1/5 1.0000
8 Orange, Robert RWR 20:08 44.702 8/66 VBM 2/12 1.1785
9 DeLuco, Matt EUR 20:18 44.335 9/66 SEM 1/3 0.9659
10 Tsilemos, Jim RWR 20:24 44.118 10/66 VBM 3/12 0.9854
11 Proulx, Steve  SRC 20:27 44.010 11/66 VBM 4/12 0.9878
12 Roth, Casey  RWR 20:29 43.938 12/66 SEM 2/3 0.9332
13 Michel, Alexandre  WQW 20:32 43.831 13/66 VAM 6/12 1.1162
14 Sugden, David OBC/RDO 20:36 43.689 14/66 VBM 5/12 0.9927
15 Gerrard, David  OBC 20:54 43.062 15/66 VBM 6/12 1.0072
Y 16 Fortin, Véronique  --- 20:56 42.994 16/66 VAF 1/6 1.0785
Mullington, Chris WQW 20:56 42.994 16/66 VCM 1/13 1.0048
18 Cameron, Allen  OBC/RWR 21:02 42.789 18/66 VCM 2/13 0.9882
Cheney, Jason RWR 21:02 42.789 18/66 VAM 7/12  
Schuck, Peter  OBC 21:02 42.789 18/66 VCM 2/13 1.0855
21 Armstrong, Brian OBC 21:05 42.688 21/66 VBM 7/12 1.0287
Budgell, Glen  OBC 21:05 42.688 21/66 VCM 4/13 0.9672
23 Spooner, Tricia  SRC 21:09 42.553 23/66 VBF 1/7 1.0142
24 Farish, Neil  OBC/RWR 21:12 42.453 24/66 VCM 5/13 1.0310
25 Labelle, Marc-Antoine OBC 21:20 42.188 25/66 JUM 1/1 1.0720
26 DeVidi, Robert  OBC 21:31 41.828 26/66 VBM 8/12 1.0000
27 Tregunno, Peter  OBC 22:06 40.724 27/66 VAM 8/12 0.8662
28 Posthuma, Hans  OBC 22:07 40.693 28/66 VCM 6/13 0.9842
Y 29 Couturier-Lamy, Felix OBC 22:11 40.571 29/66 CAM 1/3 1.0504
30 Robitaille, Brian  OBC 22:12 40.541 30/66 VBM 9/12 0.9955
31 Dorego, Jean-Louis OBC 22:31 39.970 31/66 VCM 7/13 0.9933
32 Moerman, Bram  OBC 22:36 39.823 32/66 VDM 2/5 1.0045
33 Hicks, Bob  OBC 22:39 39.735 33/66 VDM 3/5 1.0471
34 Blais, Bob OBC 22:41 39.677 34/66 VCM 8/13 1.0111
35 Phelps, Ryan --- 22:45 39.560 35/66 VAM 9/12 0.9652
36 Darville, Courtnay  OBC/CYF 22:47 39.503 36/66 VAF 2/6 1.1162
37 Bisson, Jonathan OBC 22:57 39.216 37/66 SEM 3/3 0.9870
38 Gauthier, Michelle --- 23:05 38.989 38/66 VAF 3/6  
39 Gee, Derek  OBC 23:08 38.905 39/66 MIM 1/1 1.0372
40 Acton, Mark OBC 23:11 38.821 40/66 VBM 10/12 1.0022
41 Marleau, Dianne  OBC/RWR 23:18 38.627 41/66 VBF 2/7 1.0022
42 Freed, Adam --- 23:28 38.352 42/66 VAM 10/12 0.9705
43 Momtahan, Parham  OBC 23:30 38.298 43/66 VCM 9/13 1.0322
44 Pehleman, Bob  OBC 23:32 38.244 44/66 VCM 10/13 1.0519
45 Deavy, Carol  OBC 23:41 38.001 45/66 VBF 3/7 1.0021
46 Imbrogno, Giorgio  OBC 23:56 37.604 46/66 VDM 4/5 0.9731
47 Samborsky, Mark OBC 23:58 37.552 47/66 VBM 11/12 0.9447
48 Monast-Dore, Maxime OBC 24:01 37.474 48/66 CAM 2/3 0.8802
49 Yaeger, Dave  OBC 24:10 37.241 49/66 VCM 11/13 0.9979
50 Williams, Geoffrey OBC 24:11 37.216 50/66 VCM 12/13 0.9176
51 Berthelot, Marcel OBC 24:28 36.785 51/66 VCM 13/13 1.1145
52 Déry, Nicolas  OBC 24:29 36.760 52/66 VAM 11/12 0.9637
53 Beck, Ryan OBC 24:33 36.660 53/66 CAM 3/3  
54 Gustyn, Andrew OBC 24:53 36.169 54/66 VBM 12/12 0.9161
55 Rees, Stephanie  OBC 24:54 36.145 55/66 VAF 4/6 1.0142
56 McInnis, Celia  ABC/CYF 24:55 36.120 56/66 VCF 1/2 0.9181
57 Higgs, Sharolyn  OBC/CYF 24:56 36.096 57/66 VAF 5/6 1.0593
58 Tissot, Manon OBC 25:22 35.480 58/66 VBF 4/7 1.0706
59 Shaffer, Gordon OBC 25:28 35.340 59/66 VAM 12/12 1.0580
60 Schuck, Joanne  OBC 25:39 35.088 60/66 VCF 2/2  
Y 61 Gray, Leona  OBC 25:57 34.682 61/66 VDF 1/1 1.0174
62 Flavell, Dave OBC 26:39 33.771 62/66 VDM 5/5  
63 Levi, Cheryl OBC 26:40 33.750 63/66 VBF 5/7 0.8422
64 Lamirande, Josée CYC 27:22 32.887 64/66 VBF 6/7 0.9982
65 McLaren, Louise  OBC 27:27 32.787 65/66 VBF 7/7 0.8712
66 Nascimento, Flavia  OBC 28:27 31.634 66/66 VAF 6/6 0.9947
 
Average Speed of all of the above 66 finishes (990km in 25:00:34):39.585
>>>Average of the Average Speeds for these 66 finishes39.947<<<
 

The number of data records shown above is 66
The server processing of your query took: 0 wallclock secs ( 0.09 usr + 0.01 sys = 0.10 CPU)

Thanks to our Helpers: Julie Boulanger, Avery Burdett, Neil Farish, Gunter Hauschildt, Alex McKnight, Jacques Morvan, Michael Nash, Zoe Phelps.

     


Apr 2 (Good Friday)
May 4 (10km) May 6 May 11 (10km) May 13 May 18 May 18 (10km) May 20 May 25 May 25 (10km) May 27 May 30 (40km) May 31 (10km)
Jun 1 Jun 1 Jun 3 Jun 8 Jun 8 Jun 10 Jun 14 (10km) Jun 15 Jun 15 Jun 17 Jun 22 (rained out) Jun 22 Jun 24 Jun 28 (10km) Jun 29 Jun 29
Jul 4 (40km) Jul 6 Jul 6 Jul 8 Jul 12 Jul 13 Jul 13 Jul 15 Jul 20 Jul 20 Jul 22 Jul 26 Jul 27 Jul 27 Jul 29
Aug 3 ((cancelled)) Aug 3 Aug 5 Aug 8 (40km) Aug 10 Aug 10 Aug 12 Aug 15 (40km) Aug 17 Aug 17
  Aug 19  
Aug 23 Aug 24 Aug 24 Aug 26 Aug 31 Aug 31 (Invitational)
Sep 2 Sep 7 Sep 9 Sep 12 (40km) Sep 14 Sep 19 (40km) Sep 21 Sep 28

OTT Rankings
Best       Best by category
WTT Rankings for All Participants
4 Best Speeds (≥3 15km, ≤1 10km)     4 Best Speeds (≥3 15km, ≤1 10km) by category
OTT Best Three 15km Rankings
Overall     by category     age-Hcap Female   age-Hcap Male
[OWA]TT BAR Ranking
Overall     by category     Rider "Consistency-Graph"
ABC BAR Ranking
Overall     by category     Rider "Consistency-Graph"
Other years
TT Calculator All TT People All TT events
ABC Home VVV Home
CKAP GOLD MEDAL
Other Links

Note: OTT data from 2003 through 2006-Apr-14 and 2007-Apr-06-? and WTT from 2008-? is taken from the official OBC site.

Please send your comments and suggestions to: Celia McInnis
Copyright © 1998-2011 Celia McInnis. All rights reserved. Links are welcomed.